Time;durP1;ratioP1;P1;durP2;ratioP2;P2;SDS_P1;SDS_P2;PMS_P1;PMS_P2;Temp;Humidity;BMP_temperature;BMP_pressure;BME280_temperature;BME280_humidity;BME280_pressure;Samples;Min_cycle;Max_cycle;Signal;HPM_P1;HPM_P2
2022/08/29 00:00:48;;;;;;;4.57;1.67;;;16.70;99.90;;;;;;4990492;28;20291;-50
2022/08/29 00:03:16;;;;;;;3.20;2.77;;;16.80;99.90;;;;;;4984096;28;20210;-53
2022/08/29 00:05:44;;;;;;;6.07;1.50;;;16.80;99.90;;;;;;4980718;28;20209;-52
2022/08/29 00:08:16;;;;;;;4.77;1.80;;;16.90;99.90;;;;;;4987060;28;20229;-50
2022/08/29 00:10:43;;;;;;;4.00;1.33;;;16.80;99.90;;;;;;4981483;28;20607;-51
2022/08/29 00:13:10;;;;;;;3.70;1.73;;;16.80;99.90;;;;;;4979955;28;20259;-50
2022/08/29 00:15:37;;;;;;;3.90;1.43;;;16.70;99.90;;;;;;4983568;28;20606;-51
2022/08/29 00:18:12;;;;;;;3.87;2.63;;;16.50;99.90;;;;;;4984924;28;20209;-53
2022/08/29 00:20:39;;;;;;;3.17;1.50;;;16.50;99.90;;;;;;4982659;28;20207;-51
2022/08/29 00:23:08;;;;;;;5.17;1.70;;;16.60;99.90;;;;;;4986504;28;20206;-51
2022/08/29 00:25:35;;;;;;;4.63;1.67;;;16.70;99.90;;;;;;4983628;28;20710;-49
2022/08/29 00:28:03;;;;;;;4.73;1.63;;;16.70;99.90;;;;;;4988951;28;20221;-51
2022/08/29 00:30:31;;;;;;;3.50;1.40;;;16.70;99.90;;;;;;4988565;28;20200;-52
2022/08/29 00:32:58;;;;;;;6.80;1.40;;;16.70;99.90;;;;;;4982044;28;20210;-53
2022/08/29 00:35:28;;;;;;;3.80;1.50;;;16.70;99.90;;;;;;4987008;28;20654;-52
2022/08/29 00:37:56;;;;;;;5.90;1.83;;;16.60;99.90;;;;;;4989476;28;20213;-51
2022/08/29 00:40:42;;;;;;;4.33;1.70;;;16.60;99.90;;;;;;4987115;28;20202;-53
2022/08/29 00:43:20;;;;;;;4.70;1.60;;;16.60;99.90;;;;;;4987212;28;20227;-51
2022/08/29 00:46:01;;;;;;;1.83;1.30;;;16.60;99.90;;;;;;4985673;28;20341;-52
2022/08/29 00:48:28;;;;;;;4.93;1.70;;;16.60;99.90;;;;;;4989078;28;20232;-51
2022/08/29 00:51:02;;;;;;;6.03;1.70;;;16.60;99.90;;;;;;4991451;28;20204;-52
2022/08/29 00:53:37;;;;;;;3.33;1.80;;;16.60;99.90;;;;;;4986591;28;20231;-50
2022/08/29 00:56:07;;;;;;;6.07;2.03;;;16.60;99.90;;;;;;4986742;28;20214;-51
2022/08/29 00:58:41;;;;;;;11.73;2.30;;;16.60;99.90;;;;;;4987668;28;20319;-51
2022/08/29 01:01:08;;;;;;;3.83;1.40;;;16.60;99.90;;;;;;4978487;28;20566;-50
2022/08/29 01:03:35;;;;;;;2.90;1.60;;;16.50;99.90;;;;;;4989083;28;20209;-50
2022/08/29 01:06:09;;;;;;;4.77;1.60;;;16.50;99.90;;;;;;4989240;28;20656;-51
2022/08/29 01:08:36;;;;;;;2.50;1.43;;;16.50;99.90;;;;;;4986673;28;20239;-49
2022/08/29 01:13:51;;;;;;;4.23;2.00;;;16.50;99.90;;;;;;4986724;28;20333;-51
2022/08/29 01:16:19;;;;;;;3.70;1.90;;;16.40;99.90;;;;;;4988739;28;20210;-50
2022/08/29 01:18:49;;;;;;;4.90;1.73;;;16.40;99.90;;;;;;4988411;28;20260;-52
2022/08/29 01:21:23;;;;;;;5.13;2.40;;;16.40;99.90;;;;;;4988856;28;20317;-51
2022/08/29 01:24:14;;;;;;;2.67;1.90;;;16.30;99.90;;;;;;4985355;28;20621;-51
2022/08/29 01:26:43;;;;;;;2.33;1.73;;;16.30;99.90;;;;;;4991507;28;20245;-51
2022/08/29 01:29:10;;;;;;;3.80;1.90;;;16.30;99.90;;;;;;4986058;28;20220;-50
2022/08/29 01:31:44;;;;;;;3.50;2.23;;;16.30;99.90;;;;;;4988390;28;20203;-51
2022/08/29 01:34:26;;;;;;;4.10;2.03;;;16.20;99.90;;;;;;5004901;28;20306;-51
2022/08/29 01:37:02;;;;;;;6.83;1.87;;;16.20;99.90;;;;;;4994133;28;20252;-49
2022/08/29 01:39:36;;;;;;;3.00;1.87;;;16.30;99.90;;;;;;4990998;28;20680;-51
2022/08/29 01:42:09;;;;;;;3.53;1.80;;;16.30;99.90;;;;;;4990670;28;20281;-50
2022/08/29 01:44:37;;;;;;;4.03;1.97;;;16.30;99.90;;;;;;4987354;28;20225;-52
2022/08/29 01:47:06;;;;;;;8.87;2.33;;;16.30;99.90;;;;;;4986481;28;20218;-50
2022/08/29 01:49:35;;;;;;;3.53;1.80;;;16.30;99.90;;;;;;4982328;28;20245;-52
2022/08/29 01:52:06;;;;;;;4.13;2.23;;;16.30;99.90;;;;;;4987441;28;20206;-51
2022/08/29 01:54:33;;;;;;;2.33;1.80;;;16.20;99.90;;;;;;4985515;28;20222;-51
2022/08/29 01:57:00;;;;;;;3.67;2.00;;;16.10;99.90;;;;;;4986958;28;20760;-52
2022/08/29 01:59:29;;;;;;;3.67;2.03;;;16.20;99.90;;;;;;4988371;28;20344;-50
2022/08/29 02:02:06;;;;;;;2.60;1.43;;;16.20;99.90;;;;;;4986269;28;20734;-50
2022/08/29 02:04:34;;;;;;;4.27;2.20;;;16.20;99.90;;;;;;4977479;28;20220;-50
2022/08/29 02:07:02;;;;;;;5.17;1.93;;;16.10;99.90;;;;;;4986298;28;20885;-53
2022/08/29 02:09:29;;;;;;;5.03;2.00;;;16.10;99.90;;;;;;4985034;28;20228;-51
2022/08/29 02:11:57;;;;;;;3.23;1.50;;;16.10;99.90;;;;;;4990535;28;20311;-49
2022/08/29 02:14:25;;;;;;;4.00;1.70;;;15.90;99.90;;;;;;5017611;28;20232;-52
2022/08/29 02:16:52;;;;;;;5.30;2.20;;;15.80;99.90;;;;;;5013771;28;20964;-53
2022/08/29 02:19:19;;;;;;;3.00;1.80;;;15.80;99.90;;;;;;4982943;28;20618;-52
2022/08/29 02:21:46;;;;;;;2.37;1.67;;;15.90;99.90;;;;;;4985540;28;20285;-49
2022/08/29 02:24:16;;;;;;;6.37;1.80;;;16.00;99.90;;;;;;4989843;28;20545;-51
2022/08/29 02:26:53;;;;;;;4.87;2.00;;;15.90;99.90;;;;;;4987188;28;20258;-51
2022/08/29 02:29:20;;;;;;;2.87;2.33;;;15.80;99.90;;;;;;5014989;28;20331;-52
2022/08/29 02:31:47;;;;;;;2.47;1.73;;;15.90;99.90;;;;;;4987631;28;20205;-51
2022/08/29 02:34:14;;;;;;;4.60;1.70;;;15.90;99.90;;;;;;4990333;28;20206;-52
2022/08/29 02:36:41;;;;;;;4.00;1.80;;;16.00;99.90;;;;;;4990255;28;21033;-52
2022/08/29 02:39:10;;;;;;;3.27;1.80;;;16.10;99.90;;;;;;4986273;28;20230;-52
2022/08/29 02:41:37;;;;;;;3.47;2.00;;;16.10;99.90;;;;;;4991613;28;20208;-51
2022/08/29 02:44:06;;;;;;;6.27;2.20;;;16.00;99.90;;;;;;4994406;28;20627;-50
2022/08/29 02:46:33;;;;;;;4.57;2.20;;;16.10;99.90;;;;;;4987565;28;20221;-51
2022/08/29 02:49:00;;;;;;;10.27;3.20;;;16.10;99.90;;;;;;4995363;28;20813;-52
2022/08/29 02:51:31;;;;;;;3.80;2.17;;;16.10;99.90;;;;;;4991167;28;20204;-50
2022/08/29 02:53:58;;;;;;;6.43;2.57;;;16.10;99.90;;;;;;4990379;28;20228;-55
2022/08/29 02:56:26;;;;;;;4.57;1.90;;;16.10;99.90;;;;;;4991762;28;20678;-52
2022/08/29 02:58:53;;;;;;;3.33;2.10;;;16.10;99.90;;;;;;4991378;28;20616;-50
2022/08/29 03:01:21;;;;;;;6.70;2.37;;;16.10;99.90;;;;;;4990533;28;20220;-52
2022/08/29 03:03:49;;;;;;;3.00;2.37;;;16.00;99.90;;;;;;4980314;28;20235;-51
2022/08/29 03:06:18;;;;;;;5.30;2.53;;;15.90;99.90;;;;;;4986899;28;20299;-51
2022/08/29 03:08:45;;;;;;;4.50;2.23;;;16.00;99.90;;;;;;4987568;28;20216;-51
2022/08/29 03:11:12;;;;;;;5.30;2.47;;;15.90;99.90;;;;;;4986007;28;20331;-51
2022/08/29 03:13:42;;;;;;;4.50;2.53;;;16.00;99.90;;;;;;4991763;28;20197;-51
2022/08/29 03:16:10;;;;;;;6.23;2.60;;;15.90;99.90;;;;;;4991464;28;20237;-49
2022/08/29 03:18:37;;;;;;;3.50;2.30;;;15.90;99.90;;;;;;4987156;28;20252;-52
2022/08/29 03:21:04;;;;;;;4.07;2.00;;;15.90;99.90;;;;;;4985211;28;20209;-52
2022/08/29 03:23:31;;;;;;;5.33;2.30;;;15.80;99.90;;;;;;4985952;28;20201;-50
2022/08/29 03:25:58;;;;;;;4.30;2.37;;;15.80;99.90;;;;;;4985521;28;20300;-50
2022/08/29 03:28:25;;;;;;;5.83;3.27;;;15.70;99.90;;;;;;4988824;28;20620;-50
2022/08/29 03:30:52;;;;;;;2.83;1.93;;;15.80;99.90;;;;;;4985015;28;20205;-50
2022/08/29 03:33:19;;;;;;;4.60;2.40;;;15.80;99.90;;;;;;4984257;28;20200;-50
2022/08/29 03:35:46;;;;;;;4.33;2.33;;;15.70;99.90;;;;;;4985479;28;20209;-52
2022/08/29 03:38:12;;;;;;;7.77;2.43;;;15.70;99.90;;;;;;4987690;28;20201;-51
2022/08/29 03:40:41;;;;;;;5.77;3.20;;;15.70;99.90;;;;;;4984540;28;20203;-51
2022/08/29 03:43:08;;;;;;;4.73;2.50;;;15.60;99.90;;;;;;4987273;28;20229;-51
2022/08/29 03:45:35;;;;;;;6.63;2.20;;;15.70;99.90;;;;;;4987714;28;20801;-51
2022/08/29 03:48:03;;;;;;;4.20;2.50;;;15.70;99.90;;;;;;4985813;28;20209;-52
2022/08/29 03:50:30;;;;;;;7.20;2.00;;;15.80;99.90;;;;;;4981149;28;20223;-50
2022/08/29 03:52:58;;;;;;;4.10;2.43;;;15.80;99.90;;;;;;5000592;28;20375;-51
2022/08/29 03:55:25;;;;;;;3.80;2.10;;;15.80;99.90;;;;;;4981104;28;20237;-51
2022/08/29 03:57:54;;;;;;;5.47;2.47;;;15.80;99.90;;;;;;4992425;28;20245;-52
2022/08/29 04:00:21;;;;;;;6.80;2.97;;;15.80;99.90;;;;;;4982124;28;20233;-51
2022/08/29 04:02:49;;;;;;;6.37;2.37;;;15.80;99.90;;;;;;4983134;28;20307;-51
2022/08/29 04:05:17;;;;;;;5.37;2.13;;;15.80;99.90;;;;;;4984177;28;20202;-51
2022/08/29 04:07:57;;;;;;;3.27;2.00;;;15.80;99.90;;;;;;4981642;28;20198;-51
2022/08/29 04:10:31;;;;;;;6.33;2.17;;;15.80;99.90;;;;;;4981867;28;20226;-51
2022/08/29 04:12:59;;;;;;;4.80;2.50;;;15.70;99.90;;;;;;4987604;28;20193;-51
2022/08/29 04:15:27;;;;;;;4.53;2.40;;;15.70;99.90;;;;;;4986061;28;20205;-52
2022/08/29 04:17:57;;;;;;;4.60;2.30;;;15.60;99.90;;;;;;4984326;28;20228;-52
2022/08/29 04:20:27;;;;;;;4.97;2.40;;;15.50;99.90;;;;;;4982881;28;20208;-51
2022/08/29 04:22:55;;;;;;;3.33;2.33;;;15.50;99.90;;;;;;4984214;28;20301;-51
2022/08/29 04:25:24;;;;;;;4.90;2.50;;;15.30;99.90;;;;;;4983551;28;20213;-51
2022/08/29 04:27:52;;;;;;;5.50;2.63;;;15.40;99.90;;;;;;4984643;28;20214;-51
2022/08/29 04:30:22;;;;;;;4.63;2.77;;;15.30;99.90;;;;;;4986507;28;20308;-51
2022/08/29 04:32:49;;;;;;;4.27;2.23;;;15.40;99.90;;;;;;4980831;28;20217;-49
2022/08/29 04:35:16;;;;;;;4.57;2.53;;;15.40;99.90;;;;;;4983657;28;20204;-49
2022/08/29 04:37:43;;;;;;;5.03;2.50;;;15.50;99.90;;;;;;4986235;28;20201;-51
2022/08/29 04:40:14;;;;;;;6.90;2.83;;;15.50;99.90;;;;;;4987666;28;20213;-50
2022/08/29 04:42:42;;;;;;;3.50;2.63;;;15.40;99.90;;;;;;4989487;28;20610;-51
2022/08/29 04:45:11;;;;;;;4.97;2.60;;;15.30;99.90;;;;;;4987792;28;20204;-51
2022/08/29 04:47:40;;;;;;;7.40;2.30;;;15.30;99.90;;;;;;4992599;28;20209;-50
2022/08/29 04:50:10;;;;;;;8.60;2.60;;;15.40;99.90;;;;;;4989409;28;20239;-50
2022/08/29 04:52:37;;;;;;;4.10;2.07;;;15.40;99.90;;;;;;4984355;28;21894;-52
2022/08/29 04:55:06;;;;;;;4.07;2.40;;;15.40;99.90;;;;;;4990044;28;20316;-51
2022/08/29 04:57:34;;;;;;;4.87;2.70;;;15.40;99.90;;;;;;4989518;28;20198;-51
2022/08/29 05:00:06;;;;;;;4.83;2.57;;;15.50;99.90;;;;;;4988658;28;20576;-53
2022/08/29 05:02:33;;;;;;;5.50;2.97;;;15.50;99.90;;;;;;4988706;28;20662;-51
2022/08/29 05:05:00;;;;;;;5.33;3.53;;;15.40;99.90;;;;;;4989438;28;20197;-53
2022/08/29 05:07:27;;;;;;;5.30;2.80;;;15.30;99.90;;;;;;4990022;28;20294;-52
2022/08/29 05:09:57;;;;;;;5.53;3.30;;;15.30;99.90;;;;;;4986410;28;20212;-51
2022/08/29 05:12:26;;;;;;;5.40;2.77;;;15.40;99.90;;;;;;4988093;28;20614;-51
2022/08/29 05:14:54;;;;;;;4.57;3.00;;;15.40;99.90;;;;;;4990653;28;20666;-52
2022/08/29 05:17:22;;;;;;;5.60;2.97;;;15.30;99.90;;;;;;4989396;28;20297;-52
2022/08/29 05:19:49;;;;;;;6.37;3.10;;;15.20;99.90;;;;;;4985675;28;20210;-52
2022/08/29 05:22:18;;;;;;;6.83;3.33;;;15.20;99.90;;;;;;4985784;28;20215;-53
2022/08/29 05:24:47;;;;;;;6.40;3.20;;;15.20;99.90;;;;;;4982895;28;20706;-52
2022/08/29 05:27:18;;;;;;;4.87;3.43;;;15.20;99.90;;;;;;4989547;28;20615;-52
2022/08/29 05:29:47;;;;;;;6.10;3.00;;;15.30;99.90;;;;;;4987973;28;20286;-50
2022/08/29 05:32:14;;;;;;;4.60;2.97;;;15.50;99.90;;;;;;4991496;28;20213;-52
2022/08/29 05:34:42;;;;;;;6.83;2.87;;;15.50;99.90;;;;;;4992083;28;20268;-50
2022/08/29 05:37:13;;;;;;;6.60;2.90;;;15.50;99.90;;;;;;4986043;28;20202;-50
2022/08/29 05:39:41;;;;;;;5.20;3.30;;;15.60;99.90;;;;;;4986332;28;20875;-51
2022/08/29 05:42:10;;;;;;;5.63;3.27;;;15.60;99.90;;;;;;4987675;28;20330;-50
2022/08/29 05:44:38;;;;;;;4.40;3.00;;;15.80;99.90;;;;;;4988711;28;20271;-50
2022/08/29 05:47:08;;;;;;;6.07;3.27;;;15.80;99.90;;;;;;4986330;28;20233;-50
2022/08/29 05:49:37;;;;;;;5.37;3.00;;;15.90;99.90;;;;;;4982182;28;20240;-53
2022/08/29 05:52:05;;;;;;;4.00;3.07;;;15.90;99.90;;;;;;4975760;28;20293;-51
2022/08/29 05:54:35;;;;;;;12.13;3.67;;;15.90;99.90;;;;;;4623672;28;10000071;-52
2022/08/29 05:57:02;;;;;;;9.40;3.30;;;15.80;99.90;;;;;;4986947;28;20683;-51
2022/08/29 05:59:29;;;;;;;7.33;3.13;;;15.70;99.90;;;;;;4983194;28;20217;-52
2022/08/29 06:01:56;;;;;;;6.90;3.00;;;15.90;99.90;;;;;;4985527;28;20663;-49
2022/08/29 06:04:23;;;;;;;8.07;3.53;;;15.80;99.90;;;;;;4991682;28;21391;-51
2022/08/29 06:06:50;;;;;;;8.73;3.50;;;15.70;99.90;;;;;;4986141;28;20576;-52
2022/08/29 06:09:17;;;;;;;5.43;3.30;;;15.70;99.90;;;;;;4985068;28;20275;-51
2022/08/29 06:11:49;;;;;;;7.77;3.13;;;15.80;99.90;;;;;;4990189;28;20212;-52
2022/08/29 06:14:17;;;;;;;11.07;3.20;;;15.80;99.90;;;;;;4992989;28;20202;-51
2022/08/29 06:16:44;;;;;;;6.80;3.17;;;15.90;99.90;;;;;;4988161;28;20205;-51
2022/08/29 06:19:11;;;;;;;9.00;4.80;;;15.90;99.90;;;;;;4986787;28;20233;-51
2022/08/29 06:21:38;;;;;;;8.43;3.40;;;16.00;99.90;;;;;;4989800;28;20237;-51
2022/08/29 06:24:05;;;;;;;4.90;3.37;;;15.90;99.90;;;;;;4991264;28;20206;-51
2022/08/29 06:26:32;;;;;;;5.93;3.97;;;15.90;99.90;;;;;;4991550;28;20206;-50
2022/08/29 06:29:02;;;;;;;7.03;3.67;;;15.90;99.90;;;;;;4990967;28;20342;-51
2022/08/29 06:31:28;;;;;;;5.93;3.53;;;16.00;99.90;;;;;;4995808;28;20241;-51
2022/08/29 06:33:58;;;;;;;11.80;5.20;;;15.90;99.90;;;;;;4992315;28;20379;-51
2022/08/29 06:36:26;;;;;;;8.60;4.33;;;15.90;99.90;;;;;;4989275;28;20210;-61
2022/08/29 06:38:57;;;;;;;10.67;4.00;;;15.90;99.90;;;;;;4989250;28;20288;-60
2022/08/29 06:41:24;;;;;;;5.07;3.80;;;15.90;99.90;;;;;;4992500;28;21132;-59
2022/08/29 06:43:54;;;;;;;5.63;3.90;;;15.90;99.90;;;;;;4987271;28;20849;-59
2022/08/29 06:46:30;;;;;;;9.87;3.90;;;16.00;99.90;;;;;;4983408;28;20652;-60
2022/08/29 06:48:58;;;;;;;8.40;3.57;;;16.10;99.90;;;;;;4984412;28;20679;-60
2022/08/29 06:51:26;;;;;;;7.60;3.67;;;16.20;99.90;;;;;;5015953;28;20211;-60
2022/08/29 06:53:53;;;;;;;6.97;3.63;;;16.20;99.90;;;;;;4985705;28;20261;-61
2022/08/29 06:56:20;;;;;;;8.27;3.93;;;16.30;99.90;;;;;;4989783;28;20319;-60
2022/08/29 06:58:48;;;;;;;6.03;4.23;;;16.40;99.90;;;;;;4987158;28;20227;-59
2022/08/29 07:01:17;;;;;;;5.67;3.83;;;16.60;99.90;;;;;;4986835;28;20234;-61
2022/08/29 07:03:45;;;;;;;4.80;3.37;;;16.70;99.90;;;;;;4984024;28;20686;-60
2022/08/29 07:06:12;;;;;;;6.60;3.60;;;16.70;99.90;;;;;;4988222;28;20321;-60
2022/08/29 07:08:39;;;;;;;7.60;3.53;;;16.70;99.90;;;;;;4969784;28;20214;-61
2022/08/29 07:11:26;;;;;;;5.30;3.37;;;16.60;99.90;;;;;;4985847;28;20237;-61
2022/08/29 07:13:57;;;;;;;4.80;3.00;;;16.70;99.90;;;;;;4985417;28;20203;-61
2022/08/29 07:16:24;;;;;;;7.37;3.20;;;16.80;99.90;;;;;;4984298;28;20395;-61
2022/08/29 07:18:52;;;;;;;7.60;3.67;;;16.70;99.90;;;;;;4985172;28;20834;-61
2022/08/29 07:21:22;;;;;;;8.17;3.50;;;16.50;99.90;;;;;;4988106;28;20203;-62
2022/08/29 07:23:49;;;;;;;5.00;3.50;;;16.70;99.90;;;;;;4981221;28;21436;-60
2022/08/29 07:26:20;;;;;;;7.43;4.33;;;16.90;99.90;;;;;;4989720;28;20297;-60
2022/08/29 07:28:49;;;;;;;5.17;2.90;;;17.10;99.90;;;;;;4980885;28;20216;-59
2022/08/29 07:31:16;;;;;;;7.53;3.57;;;17.30;99.90;;;;;;4968404;28;20238;-59
2022/08/29 07:33:43;;;;;;;5.60;3.47;;;17.30;99.90;;;;;;4977818;28;20207;-59
2022/08/29 07:36:10;;;;;;;7.03;3.40;;;17.40;99.90;;;;;;4983790;28;20227;-60
2022/08/29 07:38:38;;;;;;;7.20;3.33;;;17.40;99.90;;;;;;4980376;28;20815;-61
2022/08/29 07:41:14;;;;;;;7.37;3.60;;;17.50;99.90;;;;;;4979163;28;20699;-61
2022/08/29 07:43:43;;;;;;;7.00;3.47;;;17.60;99.90;;;;;;4983614;28;20198;-61
2022/08/29 07:46:14;;;;;;;7.10;3.23;;;17.70;99.90;;;;;;4976668;28;20210;-59
2022/08/29 07:48:42;;;;;;;9.00;4.00;;;17.50;99.90;;;;;;4988300;28;20741;-60
2022/08/29 07:51:12;;;;;;;7.40;3.03;;;17.50;99.90;;;;;;4985033;28;20227;-62
2022/08/29 07:53:40;;;;;;;3.77;2.50;;;17.60;99.90;;;;;;4975872;28;20195;-60
2022/08/29 07:56:10;;;;;;;10.77;2.80;;;17.70;99.90;;;;;;4984088;28;21344;-61
2022/08/29 07:58:38;;;;;;;5.20;2.60;;;17.70;99.90;;;;;;4986766;28;20201;-61
2022/08/29 08:01:05;;;;;;;5.70;2.67;;;17.80;99.90;;;;;;4977158;28;20721;-61
2022/08/29 08:03:33;;;;;;;4.57;2.60;;;17.90;99.90;;;;;;4984689;28;20206;-61
2022/08/29 08:06:01;;;;;;;5.47;2.50;;;17.90;99.90;;;;;;4978329;28;20213;-60
2022/08/29 08:08:32;;;;;;;5.20;2.23;;;18.00;99.90;;;;;;4968682;28;20678;-59
2022/08/29 08:11:00;;;;;;;4.30;2.23;;;18.00;99.90;;;;;;4984080;28;20236;-59
2022/08/29 08:13:27;;;;;;;8.97;2.60;;;18.00;99.90;;;;;;4986630;28;20205;-60
2022/08/29 08:15:54;;;;;;;5.30;2.57;;;18.10;99.90;;;;;;4990700;28;20294;-60
2022/08/29 08:18:21;;;;;;;5.90;2.90;;;18.30;99.90;;;;;;4986611;28;20254;-62
2022/08/29 08:20:48;;;;;;;3.43;2.30;;;18.10;99.90;;;;;;4980417;28;20201;-59
2022/08/29 08:23:16;;;;;;;5.50;2.43;;;18.30;99.90;;;;;;4983084;28;20220;-61
2022/08/29 08:25:43;;;;;;;4.60;2.20;;;18.50;99.90;;;;;;4982370;28;20206;-60
2022/08/29 08:28:12;;;;;;;3.40;2.50;;;18.80;99.90;;;;;;4984926;28;20239;-60
2022/08/29 08:30:39;;;;;;;6.07;2.83;;;18.80;99.90;;;;;;4979199;28;20318;-59
2022/08/29 08:33:07;;;;;;;3.63;2.37;;;18.70;99.90;;;;;;4983806;28;20203;-59
2022/08/29 08:35:36;;;;;;;4.33;2.20;;;18.70;99.90;;;;;;4983951;28;20656;-62
2022/08/29 08:38:04;;;;;;;9.83;2.87;;;18.90;99.90;;;;;;4980888;28;20201;-61
2022/08/29 08:40:32;;;;;;;4.73;2.00;;;18.90;99.90;;;;;;4971542;28;20745;-60
2022/08/29 08:43:01;;;;;;;5.53;2.03;;;18.80;99.90;;;;;;4990763;28;20206;-59
2022/08/29 08:45:35;;;;;;;4.37;2.13;;;19.00;99.90;;;;;;4983509;28;20298;-59
2022/08/29 08:48:12;;;;;;;3.03;1.80;;;19.00;99.90;;;;;;4984164;28;20212;-59
2022/08/29 08:50:44;;;;;;;7.47;2.43;;;18.80;99.90;;;;;;4981418;28;20257;-62
2022/08/29 08:53:24;;;;;;;4.30;2.07;;;18.90;99.90;;;;;;4979471;28;20645;-59
2022/08/29 08:55:54;;;;;;;6.57;2.63;;;19.10;99.90;;;;;;4987822;28;20321;-60
2022/08/29 08:58:43;;;;;;;5.13;2.23;;;19.10;99.90;;;;;;4984995;28;20320;-59
2022/08/29 09:01:35;;;;;;;5.90;2.17;;;19.20;99.90;;;;;;4984370;28;20304;-61
2022/08/29 09:04:26;;;;;;;5.93;1.97;;;19.00;99.90;;;;;;4991730;28;20615;-60
2022/08/29 09:06:59;;;;;;;2.83;1.73;;;19.10;99.90;;;;;;4990188;28;21965;-61
2022/08/29 09:09:50;;;;;;;5.53;2.10;;;18.90;99.90;;;;;;4982913;28;20280;-60
2022/08/29 09:12:33;;;;;;;3.57;2.07;;;19.00;99.90;;;;;;4994014;28;20255;-59
2022/08/29 09:15:10;;;;;;;3.53;1.77;;;19.20;99.90;;;;;;4988729;28;20691;-62
2022/08/29 09:17:40;;;;;;;5.93;2.13;;;19.30;99.90;;;;;;4984256;28;20202;-60
2022/08/29 09:20:15;;;;;;;6.13;2.07;;;19.40;99.90;;;;;;4989642;28;20285;-60
2022/08/29 09:22:51;;;;;;;5.17;2.37;;;19.50;99.90;;;;;;4987326;28;20201;-60
2022/08/29 09:25:17;;;;;;;5.57;1.83;;;19.40;99.90;;;;;;4983841;28;21010;-59
2022/08/29 09:27:48;;;;;;;6.03;1.93;;;19.50;99.90;;;;;;4991622;28;20256;-59
2022/08/29 09:30:23;;;;;;;4.77;2.20;;;19.30;99.90;;;;;;4984313;28;20225;-60
2022/08/29 09:33:00;;;;;;;5.23;2.20;;;19.00;99.90;;;;;;4980750;28;20206;-60
2022/08/29 09:35:39;;;;;;;7.17;2.97;;;18.90;99.90;;;;;;4990671;28;20206;-61
2022/08/29 09:38:18;;;;;;;3.37;1.90;;;18.80;99.90;;;;;;4981891;28;20208;-62
2022/08/29 09:41:00;;;;;;;7.90;2.30;;;19.10;99.90;;;;;;4983629;28;20614;-60
2022/08/29 09:43:42;;;;;;;4.90;2.37;;;19.30;99.90;;;;;;4981042;28;21150;-59
2022/08/29 09:46:25;;;;;;;5.37;2.20;;;19.40;99.90;;;;;;4977290;28;20210;-60
2022/08/29 09:48:56;;;;;;;3.53;1.80;;;19.40;99.90;;;;;;4971224;28;20244;-60
2022/08/29 09:51:32;;;;;;;4.70;2.00;;;19.50;99.90;;;;;;4975475;28;20225;-59
2022/08/29 09:54:13;;;;;;;4.90;2.10;;;19.50;99.90;;;;;;4979385;28;20280;-61
2022/08/29 09:56:49;;;;;;;5.63;2.00;;;19.20;99.90;;;;;;4977894;28;20291;-61
2022/08/29 09:59:31;;;;;;;13.03;2.87;;;19.20;99.90;;;;;;5008262;28;20288;-61
2022/08/29 10:02:16;;;;;;;7.77;2.50;;;19.60;99.90;;;;;;5008190;28;20268;-61
2022/08/29 10:04:51;;;;;;;6.40;2.40;;;19.50;99.90;;;;;;4976147;28;20580;-61
2022/08/29 10:07:23;;;;;;;4.93;2.23;;;19.70;99.90;;;;;;4975693;28;20565;-61
2022/08/29 10:10:03;;;;;;;2.97;1.77;;;20.10;99.90;;;;;;4981385;28;20657;-59
2022/08/29 10:12:34;;;;;;;11.97;2.80;;;20.10;99.90;;;;;;4975139;28;20205;-59
2022/08/29 10:15:07;;;;;;;3.97;2.23;;;20.00;99.90;;;;;;4981092;28;20215;-60
2022/08/29 10:20:57;;;;;;;4.30;2.20;;;19.70;99.90;;;;;;4981542;28;20208;-61
2022/08/29 10:23:43;;;;;;;9.17;2.70;;;19.90;99.90;;;;;;4938402;28;20206;-61
2022/08/29 10:26:34;;;;;;;3.73;2.57;;;20.10;99.90;;;;;;4991462;28;20259;-60
2022/08/29 10:29:25;;;;;;;5.30;2.27;;;20.10;99.90;;;;;;4979293;28;20277;-60
2022/08/29 10:32:30;;;;;;;4.73;2.47;;;20.10;99.90;;;;;;4999843;28;20309;-60
2022/08/29 10:35:28;;;;;;;4.37;2.07;;;20.20;99.90;;;;;;4999399;28;20252;-60
2022/08/29 10:38:32;;;;;;;5.97;2.30;;;20.10;99.90;;;;;;4983475;28;20202;-59
2022/08/29 10:41:18;;;;;;;4.97;2.10;;;19.90;99.90;;;;;;4983676;28;20645;-60
2022/08/29 10:43:48;;;;;;;3.60;2.20;;;19.90;99.90;;;;;;4987431;28;20542;-60
2022/08/29 10:46:43;;;;;;;3.33;2.30;;;20.20;99.90;;;;;;4983106;28;20296;-60
2022/08/29 10:49:35;;;;;;;5.37;2.10;;;20.10;99.90;;;;;;4987370;28;20249;-59
2022/08/29 10:52:32;;;;;;;5.07;2.23;;;20.30;99.90;;;;;;4984705;28;20585;-62
2022/08/29 10:55:17;;;;;;;3.93;2.50;;;20.30;99.90;;;;;;4988990;28;20320;-61
2022/08/29 10:58:32;;;;;;;4.10;2.33;;;20.20;99.90;;;;;;4985320;28;21228;-60
2022/08/29 11:01:27;;;;;;;3.67;2.10;;;20.50;99.90;;;;;;4984219;28;20206;-62
2022/08/29 11:04:16;;;;;;;5.97;2.30;;;20.50;99.90;;;;;;4967298;28;20210;-60
2022/08/29 11:06:47;;;;;;;5.00;2.33;;;20.40;99.90;;;;;;4990188;28;20230;-60
2022/08/29 11:09:21;;;;;;;2.77;1.83;;;20.70;99.90;;;;;;4985339;28;20194;-61
2022/08/29 11:12:04;;;;;;;4.73;2.30;;;20.90;99.90;;;;;;4987786;28;20326;-60
2022/08/29 11:14:39;;;;;;;5.07;2.40;;;21.10;99.90;;;;;;4977226;28;20266;-60
2022/08/29 11:17:11;;;;;;;6.17;2.43;;;21.10;99.90;;;;;;4985882;28;20206;-60
2022/08/29 11:20:10;;;;;;;4.87;2.20;;;20.90;99.90;;;;;;4983897;28;20293;-60
2022/08/29 11:23:06;;;;;;;5.13;2.30;;;20.90;99.90;;;;;;4982785;28;20857;-60
2022/08/29 11:25:35;;;;;;;4.97;2.17;;;20.80;99.90;;;;;;4986944;28;20237;-59
2022/08/29 11:28:23;;;;;;;6.17;2.27;;;20.90;99.90;;;;;;4958642;28;20268;-60
2022/08/29 11:30:54;;;;;;;2.57;2.00;;;21.20;99.90;;;;;;4981270;28;20251;-61
2022/08/29 11:33:39;;;;;;;5.70;2.60;;;21.10;99.90;;;;;;4983919;28;20218;-59
2022/08/29 11:36:42;;;;;;;6.33;2.53;;;21.20;99.90;;;;;;4987120;28;20237;-60
2022/08/29 11:39:28;;;;;;;5.83;2.27;;;21.70;99.90;;;;;;4983559;28;20635;-61
2022/08/29 11:42:00;;;;;;;3.63;2.27;;;22.00;99.90;;;;;;4984037;28;20368;-61
2022/08/29 11:44:29;;;;;;;4.43;2.07;;;22.30;99.90;;;;;;5017895;28;20725;-60
2022/08/29 11:46:57;;;;;;;3.30;2.17;;;22.50;99.90;;;;;;4975634;28;20245;-60
2022/08/29 11:49:49;;;;;;;5.83;2.47;;;22.60;99.90;;;;;;4980433;28;20787;-60
2022/08/29 11:52:25;;;;;;;4.53;2.20;;;22.20;99.90;;;;;;5001298;28;20251;-60
2022/08/29 11:55:12;;;;;;;6.27;2.20;;;22.50;99.90;;;;;;4988275;28;20419;-59
2022/08/29 11:57:48;;;;;;;4.50;2.27;;;22.00;99.90;;;;;;4981099;28;20201;-62
2022/08/29 12:01:05;;;;;;;3.97;2.83;;;21.90;99.90;;;;;;4980495;28;20250;-61
2022/08/29 12:03:37;;;;;;;6.17;2.03;;;21.90;99.90;;;;;;4909453;29;20771;-61
2022/08/29 12:06:22;;;;;;;5.63;2.40;;;21.80;99.90;;;;;;4913565;29;20204;-60
2022/08/29 12:08:58;;;;;;;4.03;2.47;;;21.80;99.90;;;;;;4911472;29;20214;-59
2022/08/29 12:12:11;;;;;;;3.87;2.37;;;22.50;99.90;;;;;;4912234;29;21405;-62
2022/08/29 12:14:47;;;;;;;3.23;1.67;;;23.30;99.90;;;;;;4822931;29;20297;-60
2022/08/29 12:17:23;;;;;;;6.70;3.13;;;22.90;99.90;;;;;;4896324;29;20677;-60
2022/08/29 12:20:06;;;;;;;5.93;2.60;;;22.30;99.90;;;;;;4908772;29;20267;-60
2022/08/29 12:22:54;;;;;;;3.67;2.37;;;22.40;99.90;;;;;;4897628;29;20271;-61
2022/08/29 12:25:26;;;;;;;4.40;2.17;;;23.00;99.90;;;;;;4906950;29;20216;-60
2022/08/29 12:28:14;;;;;;;5.57;2.80;;;22.50;99.90;;;;;;4908343;29;20866;-60
2022/08/29 12:31:06;;;;;;;3.90;2.30;;;23.30;99.90;;;;;;4912392;29;20955;-62
2022/08/29 12:33:53;;;;;;;7.47;2.50;;;23.70;99.90;;;;;;4924562;28;20268;-59
2022/08/29 12:36:35;;;;;;;4.67;2.50;;;23.20;99.90;;;;;;4975103;28;20272;-60
2022/08/29 12:39:22;;;;;;;4.07;2.30;;;22.40;99.90;;;;;;4986795;28;20272;-60
2022/08/29 12:42:13;;;;;;;6.70;2.73;;;22.30;99.90;;;;;;4989515;28;20205;-60
2022/08/29 12:44:46;;;;;;;4.97;2.00;;;22.40;99.90;;;;;;4984032;28;20233;-61
2022/08/29 12:47:25;;;;;;;4.27;2.43;;;22.70;99.90;;;;;;4978127;28;20221;-60
2022/08/29 12:49:59;;;;;;;5.77;2.27;;;23.50;99.90;;;;;;4983260;28;20248;-62
2022/08/29 12:52:33;;;;;;;5.20;2.47;;;23.80;99.90;;;;;;4985171;28;20225;-60
2022/08/29 12:55:25;;;;;;;5.03;2.53;;;23.90;99.90;;;;;;4989614;28;20582;-59
2022/08/29 12:57:56;;;;;;;4.30;2.00;;;23.80;99.90;;;;;;4981621;28;20218;-61
2022/08/29 13:00:29;;;;;;;5.33;2.50;;;23.00;99.90;;;;;;4979343;28;20308;-60
2022/08/29 13:03:08;;;;;;;8.00;2.80;;;22.70;99.90;;;;;;4990158;28;20633;-60
2022/08/29 13:05:42;;;;;;;4.17;2.23;;;22.60;99.90;;;;;;4994433;28;20339;-61
2022/08/29 13:08:12;;;;;;;4.67;2.47;;;23.00;99.90;;;;;;4990295;28;20547;-60
2022/08/29 13:11:01;;;;;;;4.67;2.60;;;23.00;99.90;;;;;;5003265;28;20689;-60
2022/08/29 13:13:28;;;;;;;4.93;2.23;;;23.00;99.90;;;;;;4980307;28;20368;-59
2022/08/29 13:16:00;;;;;;;8.07;2.30;;;23.60;99.90;;;;;;4985640;28;20306;-59
2022/08/29 13:18:28;;;;;;;6.50;2.37;;;23.40;99.90;;;;;;4982610;28;20210;-62
2022/08/29 13:21:12;;;;;;;6.50;3.27;;;23.70;99.90;;;;;;4989012;28;20252;-61